Time;durP1;ratioP1;P1;durP2;ratioP2;P2;SDS_P1;SDS_P2;PMS_P1;PMS_P2;Temp;Humidity;BMP_temperature;BMP_pressure;BME280_temperature;BME280_humidity;BME280_pressure;Samples;Min_cycle;Max_cycle;Signal;HPM_P1;HPM_P2
2023/12/12 00:00:30;;;;;;;;;;;;;;;;;;4997234;28;20112;-50
2023/12/12 00:02:56;;;;;;;;;;;;;;;;;;5012452;28;19910;-50
2023/12/12 00:05:22;;;;;;;;;;;;;;;;;;5000305;28;19914;-48
2023/12/12 00:07:48;;;;;;;;;;;;;;;;;;4995222;28;20279;-52
2023/12/12 00:10:14;;;;;;;;;;;;;;;;;;4993824;28;20387;-49
2023/12/12 00:12:40;;;;;;;;;;;;;;;;;;4993616;28;19964;-51
2023/12/12 00:15:06;;;;;;;;;;;;;;;;;;4995018;28;19914;-50
2023/12/12 00:17:32;;;;;;;;;;;;;;;;;;5013374;28;19910;-49
2023/12/12 00:19:59;;;;;;;;;;;;;;;;;;5012824;28;19917;-50
2023/12/12 00:22:25;;;;;;;;;;;;;;;;;;5006647;28;19921;-51
2023/12/12 00:24:51;;;;;;;;;;;;;;;;;;5000986;28;19920;-52
2023/12/12 00:27:17;;;;;;;;;;;;;;;;;;5013430;28;19909;-48
2023/12/12 00:29:45;;;;;;;;;;;;;;;;;;5012486;28;19917;-49
2023/12/12 00:32:11;;;;;;;;;;;;;;;;;;4995612;28;19913;-48
2023/12/12 00:34:37;;;;;;;;;;;;;;;;;;4993479;28;19913;-48
2023/12/12 00:37:03;;;;;;;;;;;;;;;;;;4993492;28;19917;-48
2023/12/12 00:39:29;;;;;;;;;;;;;;;;;;4996179;28;19941;-48
2023/12/12 00:41:55;;;;;;;;;;;;;;;;;;4993263;28;19918;-48
2023/12/12 00:44:21;;;;;;;;;;;;;;;;;;4993195;28;19913;-48
2023/12/12 00:46:47;;;;;;;;;;;;;;;;;;4986201;28;19953;-48
2023/12/12 00:49:13;;;;;;;;;;;;;;;;;;5005277;28;19917;-48
2023/12/12 00:51:39;;;;;;;;;;;;;;;;;;5012571;28;19913;-48
2023/12/12 00:54:05;;;;;;;;;;;;;;;;;;5011106;28;19917;-48
2023/12/12 00:56:31;;;;;;;;;;;;;;;;;;5012419;28;20393;-49
2023/12/12 00:58:57;;;;;;;;;;;;;;;;;;5009565;28;20374;-48
2023/12/12 01:01:23;;;;;;;;;;;;;;;;;;5000641;28;19920;-48
2023/12/12 01:03:49;;;;;;;;;;;;;;;;;;4992868;28;19914;-48
2023/12/12 01:06:15;;;;;;;;;;;;;;;;;;4991844;28;19945;-48
2023/12/12 01:08:41;;;;;;;;;;;;;;;;;;4999592;28;19914;-48
2023/12/12 01:11:08;;;;;;;;;;;;;;;;;;5009677;28;20444;-48
2023/12/12 01:13:34;;;;;;;;;;;;;;;;;;4993244;28;19914;-48
2023/12/12 01:16:00;;;;;;;;;;;;;;;;;;4994060;28;20283;-48
2023/12/12 01:18:26;;;;;;;;;;;;;;;;;;4995957;28;20365;-48
2023/12/12 01:20:53;;;;;;;;;;;;;;;;;;5012485;28;19956;-48
2023/12/12 01:23:19;;;;;;;;;;;;;;;;;;5001157;28;19921;-48
2023/12/12 01:25:45;;;;;;;;;;;;;;;;;;4998056;28;19918;-48
2023/12/12 01:28:11;;;;;;;;;;;;;;;;;;5009906;28;19956;-48
2023/12/12 01:30:37;;;;;;;;;;;;;;;;;;4996841;28;19921;-48
2023/12/12 01:33:03;;;;;;;;;;;;;;;;;;5012176;28;19914;-48
2023/12/12 01:35:30;;;;;;;;;;;;;;;;;;5010564;28;19918;-48
2023/12/12 01:37:56;;;;;;;;;;;;;;;;;;5007745;28;20012;-49
2023/12/12 01:40:22;;;;;;;;;;;;;;;;;;4993459;28;19997;-48
2023/12/12 01:42:48;;;;;;;;;;;;;;;;;;4992690;28;19914;-49
2023/12/12 01:45:14;;;;;;;;;;;;;;;;;;4995997;28;20004;-49
2023/12/12 01:47:40;;;;;;;;;;;;;;;;;;5016240;28;19920;-49
2023/12/12 01:50:06;;;;;;;;;;;;;;;;;;4998471;28;19910;-48
2023/12/12 01:52:32;;;;;;;;;;;;;;;;;;4997432;28;19914;-50
2023/12/12 01:54:58;;;;;;;;;;;;;;;;;;4996652;28;19910;-48
2023/12/12 01:57:24;;;;;;;;;;;;;;;;;;5005897;28;19917;-48
2023/12/12 01:59:50;;;;;;;;;;;;;;;;;;4998535;28;19913;-48
2023/12/12 02:02:16;;;;;;;;;;;;;;;;;;5000133;28;19964;-48
2023/12/12 02:04:42;;;;;;;;;;;;;;;;;;5014675;28;19945;-48
2023/12/12 02:07:08;;;;;;;;;;;;;;;;;;5008074;28;19921;-48
2023/12/12 02:09:34;;;;;;;;;;;;;;;;;;4978573;28;19918;-48
2023/12/12 02:12:01;;;;;;;;;;;;;;;;;;5006051;28;20370;-48
2023/12/12 02:14:27;;;;;;;;;;;;;;;;;;4996110;28;20017;-48
2023/12/12 02:16:53;;;;;;;;;;;;;;;;;;5010622;28;19917;-48
2023/12/12 02:19:19;;;;;;;;;;;;;;;;;;5006391;28;19924;-48
2023/12/12 02:21:47;;;;;;;;;;;;;;;;;;5005143;28;19956;-47
2023/12/12 02:24:13;;;;;;;;;;;;;;;;;;4990062;28;20377;-48
2023/12/12 02:26:39;;;;;;;;;;;;;;;;;;4996960;28;20274;-48
2023/12/12 02:29:05;;;;;;;;;;;;;;;;;;5010771;28;20431;-47
2023/12/12 02:31:31;;;;;;;;;;;;;;;;;;5011535;28;19913;-49
2023/12/12 02:33:57;;;;;;;;;;;;;;;;;;5015299;28;19910;-48
2023/12/12 02:36:23;;;;;;;;;;;;;;;;;;5014961;28;19913;-50
2023/12/12 02:38:50;;;;;;;;;;;;;;;;;;5013895;28;19917;-52
2023/12/12 02:41:16;;;;;;;;;;;;;;;;;;5011053;28;19944;-48
2023/12/12 02:43:42;;;;;;;;;;;;;;;;;;5011755;28;19914;-48
2023/12/12 02:46:08;;;;;;;;;;;;;;;;;;5006320;28;19914;-48
2023/12/12 02:48:34;;;;;;;;;;;;;;;;;;4995437;28;19916;-47
2023/12/12 02:51:00;;;;;;;;;;;;;;;;;;4998733;28;19914;-47
2023/12/12 02:53:26;;;;;;;;;;;;;;;;;;5010715;28;19960;-48
2023/12/12 02:55:52;;;;;;;;;;;;;;;;;;4995529;28;20326;-48
2023/12/12 02:58:18;;;;;;;;;;;;;;;;;;5003288;28;19975;-48
2023/12/12 03:00:45;;;;;;;;;;;;;;;;;;4998983;28;19962;-48
2023/12/12 03:03:11;;;;;;;;;;;;;;;;;;4993766;28;19918;-48
2023/12/12 03:05:37;;;;;;;;;;;;;;;;;;4995181;28;20401;-48
2023/12/12 03:08:03;;;;;;;;;;;;;;;;;;5004696;28;20290;-48
2023/12/12 03:10:29;;;;;;;;;;;;;;;;;;5003249;28;19914;-48
2023/12/12 03:12:55;;;;;;;;;;;;;;;;;;5012594;28;20297;-47
2023/12/12 03:15:21;;;;;;;;;;;;;;;;;;5009147;28;19914;-48
2023/12/12 03:17:47;;;;;;;;;;;;;;;;;;4993642;28;20389;-48
2023/12/12 03:20:13;;;;;;;;;;;;;;;;;;5000722;28;19914;-48
2023/12/12 03:22:39;;;;;;;;;;;;;;;;;;4997842;28;20005;-48
2023/12/12 03:25:05;;;;;;;;;;;;;;;;;;5002975;28;19918;-48
2023/12/12 03:27:31;;;;;;;;;;;;;;;;;;5014108;28;19921;-48
2023/12/12 03:29:57;;;;;;;;;;;;;;;;;;5012604;28;19921;-48
2023/12/12 03:32:23;;;;;;;;;;;;;;;;;;5007368;28;19920;-49
2023/12/12 03:34:49;;;;;;;;;;;;;;;;;;5005258;28;19917;-49
2023/12/12 03:37:15;;;;;;;;;;;;;;;;;;4994570;28;19918;-48
2023/12/12 03:39:41;;;;;;;;;;;;;;;;;;4993137;28;19917;-48
2023/12/12 03:42:07;;;;;;;;;;;;;;;;;;5002295;28;19925;-48
2023/12/12 03:44:33;;;;;;;;;;;;;;;;;;5011660;28;20287;-50
2023/12/12 03:47:00;;;;;;;;;;;;;;;;;;4999347;28;19921;-49
2023/12/12 03:49:26;;;;;;;;;;;;;;;;;;4999788;28;20109;-48
2023/12/12 03:51:52;;;;;;;;;;;;;;;;;;5001833;28;19920;-48
2023/12/12 03:54:18;;;;;;;;;;;;;;;;;;5004027;28;20120;-51
2023/12/12 03:56:44;;;;;;;;;;;;;;;;;;5009865;28;20309;-48
2023/12/12 03:59:10;;;;;;;;;;;;;;;;;;5013605;28;19925;-48
2023/12/12 04:01:36;;;;;;;;;;;;;;;;;;5001790;28;19914;-48
2023/12/12 04:04:02;;;;;;;;;;;;;;;;;;4994157;28;20330;-48
2023/12/12 04:06:28;;;;;;;;;;;;;;;;;;4995112;28;20388;-48
2023/12/12 04:08:54;;;;;;;;;;;;;;;;;;4992410;28;19914;-48
2023/12/12 04:11:20;;;;;;;;;;;;;;;;;;4994055;28;19921;-48
2023/12/12 04:13:46;;;;;;;;;;;;;;;;;;5013384;28;19928;-50
2023/12/12 04:16:12;;;;;;;;;;;;;;;;;;5000665;28;19914;-49
2023/12/12 04:18:39;;;;;;;;;;;;;;;;;;5006116;28;19918;-47
2023/12/12 04:21:05;;;;;;;;;;;;;;;;;;5013333;28;19918;-48
2023/12/12 04:23:31;;;;;;;;;;;;;;;;;;5002912;28;19913;-49
2023/12/12 04:25:57;;;;;;;;;;;;;;;;;;4992542;28;19968;-48
2023/12/12 04:28:23;;;;;;;;;;;;;;;;;;5000083;28;20285;-48
2023/12/12 04:30:49;;;;;;;;;;;;;;;;;;5006998;28;19924;-46
2023/12/12 04:33:15;;;;;;;;;;;;;;;;;;4998783;28;19920;-46
2023/12/12 04:35:41;;;;;;;;;;;;;;;;;;5013089;28;19910;-47
2023/12/12 04:38:08;;;;;;;;;;;;;;;;;;5009143;28;20012;-47
2023/12/12 04:40:34;;;;;;;;;;;;;;;;;;4992180;28;20339;-48
2023/12/12 04:43:00;;;;;;;;;;;;;;;;;;5001777;28;19985;-46
2023/12/12 04:45:26;;;;;;;;;;;;;;;;;;5006852;28;19922;-47
2023/12/12 04:47:52;;;;;;;;;;;;;;;;;;4993633;28;20295;-48
2023/12/12 04:50:18;;;;;;;;;;;;;;;;;;4993040;28;19909;-48
2023/12/12 04:52:44;;;;;;;;;;;;;;;;;;4992989;28;20405;-46
2023/12/12 04:55:10;;;;;;;;;;;;;;;;;;5004353;28;19971;-44
2023/12/12 04:57:36;;;;;;;;;;;;;;;;;;5011216;28;19913;-44
2023/12/12 05:00:03;;;;;;;;;;;;;;;;;;5006557;28;20008;-49
2023/12/12 05:02:29;;;;;;;;;;;;;;;;;;4992164;28;20064;-47
2023/12/12 05:04:55;;;;;;;;;;;;;;;;;;4993117;28;19960;-49
2023/12/12 05:07:21;;;;;;;;;;;;;;;;;;4993166;28;19948;-51
2023/12/12 05:09:47;;;;;;;;;;;;;;;;;;4992981;28;20012;-48
2023/12/12 05:12:13;;;;;;;;;;;;;;;;;;4992909;28;19920;-48
2023/12/12 05:14:39;;;;;;;;;;;;;;;;;;4992819;28;20362;-50
2023/12/12 05:17:05;;;;;;;;;;;;;;;;;;4992953;28;19925;-49
2023/12/12 05:19:31;;;;;;;;;;;;;;;;;;4991875;28;19918;-47
2023/12/12 05:21:57;;;;;;;;;;;;;;;;;;4991625;28;20298;-48
2023/12/12 05:24:23;;;;;;;;;;;;;;;;;;4992761;28;20352;-51
2023/12/12 05:26:50;;;;;;;;;;;;;;;;;;4991676;28;20367;-48
2023/12/12 05:29:16;;;;;;;;;;;;;;;;;;4992564;28;20353;-46
2023/12/12 05:31:42;;;;;;;;;;;;;;;;;;4992805;28;19922;-46
2023/12/12 05:34:08;;;;;;;;;;;;;;;;;;4992633;28;20009;-48
2023/12/12 05:36:34;;;;;;;;;;;;;;;;;;4992802;28;19981;-48
2023/12/12 05:39:00;;;;;;;;;;;;;;;;;;4992605;28;20131;-47
2023/12/12 05:41:27;;;;;;;;;;;;;;;;;;4992685;28;20004;-51
2023/12/12 05:43:53;;;;;;;;;;;;;;;;;;4992816;28;19909;-47
2023/12/12 05:46:19;;;;;;;;;;;;;;;;;;4992648;28;20072;-51
2023/12/12 05:48:45;;;;;;;;;;;;;;;;;;4992481;28;20346;-48
2023/12/12 05:51:11;;;;;;;;;;;;;;;;;;4992547;28;19914;-49
2023/12/12 05:53:37;;;;;;;;;;;;;;;;;;4992423;28;20030;-49
2023/12/12 05:56:03;;;;;;;;;;;;;;;;;;4992561;28;19913;-48
2023/12/12 05:58:29;;;;;;;;;;;;;;;;;;4991362;28;19914;-48
2023/12/12 06:00:55;;;;;;;;;;;;;;;;;;4991125;28;19952;-48
2023/12/12 06:03:21;;;;;;;;;;;;;;;;;;4992871;28;19910;-48
2023/12/12 06:05:47;;;;;;;;;;;;;;;;;;4992621;28;19920;-47
2023/12/12 06:08:13;;;;;;;;;;;;;;;;;;4992508;28;19916;-48
2023/12/12 06:10:39;;;;;;;;;;;;;;;;;;4991148;28;19913;-49
2023/12/12 06:13:05;;;;;;;;;;;;;;;;;;4991210;28;19917;-48
2023/12/12 06:15:32;;;;;;;;;;;;;;;;;;4992538;28;19914;-46
2023/12/12 06:17:58;;;;;;;;;;;;;;;;;;4992791;28;19910;-46
2023/12/12 06:20:25;;;;;;;;;;;;;;;;;;4992424;28;20370;-46
2023/12/12 06:22:51;;;;;;;;;;;;;;;;;;4992398;28;19988;-47
2023/12/12 06:25:17;;;;;;;;;;;;;;;;;;4992435;28;19914;-45
2023/12/12 06:27:43;;;;;;;;;;;;;;;;;;4992631;28;19960;-46
2023/12/12 06:30:09;;;;;;;;;;;;;;;;;;4991219;28;20009;-47
2023/12/12 06:32:35;;;;;;;;;;;;;;;;;;4995694;28;20048;-46
2023/12/12 06:35:04;;;;;;;;;;;;;;;;;;4994657;28;19913;-48
2023/12/12 06:37:30;;;;;;;;;;;;;;;;;;4995793;28;19910;-47
2023/12/12 06:39:57;;;;;;;;;;;;;;;;;;4995517;28;19928;-46
2023/12/12 06:42:24;;;;;;;;;;;;;;;;;;4994371;28;19910;-46
2023/12/12 06:44:50;;;;;;;;;;;;;;;;;;4995640;28;19913;-46
2023/12/12 06:47:16;;;;;;;;;;;;;;;;;;4995547;28;19984;-46
2023/12/12 06:49:42;;;;;;;;;;;;;;;;;;4995542;28;19964;-47
2023/12/12 06:52:08;;;;;;;;;;;;;;;;;;4995397;28;19942;-46
2023/12/12 06:54:35;;;;;;;;;;;;;;;;;;4994044;28;19914;-46
2023/12/12 06:57:01;;;;;;;;;;;;;;;;;;4995406;28;19910;-45
2023/12/12 06:59:27;;;;;;;;;;;;;;;;;;4993998;28;19970;-47
2023/12/12 07:01:54;;;;;;;;;;;;;;;;;;4995444;28;20345;-46
2023/12/12 07:04:21;;;;;;;;;;;;;;;;;;4995193;28;19914;-46
2023/12/12 07:06:47;;;;;;;;;;;;;;;;;;4995303;28;19976;-46
2023/12/12 07:09:13;;;;;;;;;;;;;;;;;;4994997;28;19968;-48
2023/12/12 07:11:39;;;;;;;;;;;;;;;;;;4995132;28;20307;-48
2023/12/12 07:14:05;;;;;;;;;;;;;;;;;;4994940;28;19918;-48
2023/12/12 07:16:31;;;;;;;;;;;;;;;;;;4995201;28;19910;-48
2023/12/12 07:18:58;;;;;;;;;;;;;;;;;;4993671;28;20024;-48
2023/12/12 07:21:24;;;;;;;;;;;;;;;;;;4995063;28;20201;-48
2023/12/12 07:23:51;;;;;;;;;;;;;;;;;;4994770;28;20185;-46
2023/12/12 07:26:17;;;;;;;;;;;;;;;;;;4994884;28;19910;-47
2023/12/12 07:28:44;;;;;;;;;;;;;;;;;;4993436;28;20001;-48
2023/12/12 07:31:14;;;;;;;;;;;;;;;;;;4994770;28;20388;-48
2023/12/12 07:33:40;;;;;;;;;;;;;;;;;;4994615;28;20290;-47
2023/12/12 07:36:06;;;;;;;;;;;;;;;;;;4994691;28;19910;-48
2023/12/12 07:38:32;;;;;;;;;;;;;;;;;;4994337;28;20056;-46
2023/12/12 07:41:00;;;;;;;;;;;;;;;;;;4993287;28;20371;-46
2023/12/12 07:43:26;;;;;;;;;;;;;;;;;;4992322;28;19914;-48
2023/12/12 07:45:52;;;;;;;;;;;;;;;;;;4994542;28;19925;-47
2023/12/12 07:48:18;;;;;;;;;;;;;;;;;;4994586;28;19914;-46
2023/12/12 07:50:45;;;;;;;;;;;;;;;;;;4994292;28;19910;-47
2023/12/12 07:53:11;;;;;;;;;;;;;;;;;;4994176;28;19914;-46
2023/12/12 07:55:37;;;;;;;;;;;;;;;;;;4994423;28;19913;-46
2023/12/12 07:58:03;;;;;;;;;;;;;;;;;;4994209;28;20325;-46
2023/12/12 08:00:29;;;;;;;;;;;;;;;;;;4994146;28;20351;-46
2023/12/12 08:02:55;;;;;;;;;;;;;;;;;;4994041;28;19917;-46
2023/12/12 08:05:21;;;;;;;;;;;;;;;;;;4994164;28;20000;-46
2023/12/12 08:07:48;;;;;;;;;;;;;;;;;;4992890;28;19921;-48
2023/12/12 08:10:14;;;;;;;;;;;;;;;;;;4993896;28;19956;-48
2023/12/12 08:12:40;;;;;;;;;;;;;;;;;;4993987;28;19959;-46
2023/12/12 08:15:06;;;;;;;;;;;;;;;;;;4992735;28;20416;-48
2023/12/12 08:17:32;;;;;;;;;;;;;;;;;;4993905;28;19920;-49
2023/12/12 08:19:58;;;;;;;;;;;;;;;;;;4993738;28;20305;-49
2023/12/12 08:22:25;;;;;;;;;;;;;;;;;;4993618;28;19914;-48
2023/12/12 08:24:53;;;;;;;;;;;;;;;;;;4993792;28;19910;-47
2023/12/12 08:27:19;;;;;;;;;;;;;;;;;;4993791;28;19914;-48
2023/12/12 08:29:45;;;;;;;;;;;;;;;;;;4992239;28;19921;-46
2023/12/12 08:32:11;;;;;;;;;;;;;;;;;;4993582;28;20424;-48
2023/12/12 08:34:37;;;;;;;;;;;;;;;;;;4993510;28;20617;-46
2023/12/12 08:37:03;;;;;;;;;;;;;;;;;;4993571;28;19922;-46
2023/12/12 08:39:31;;;;;;;;;;;;;;;;;;4993506;28;20263;-46
2023/12/12 08:41:57;;;;;;;;;;;;;;;;;;4992233;28;19914;-46
2023/12/12 08:44:23;;;;;;;;;;;;;;;;;;4992002;28;19917;-46
2023/12/12 08:46:50;;;;;;;;;;;;;;;;;;4993441;28;19920;-48
2023/12/12 08:49:18;;;;;;;;;;;;;;;;;;4993234;28;19949;-46
2023/12/12 08:51:44;;;;;;;;;;;;;;;;;;4992148;28;19914;-46
2023/12/12 08:54:10;;;;;;;;;;;;;;;;;;4993048;28;19916;-46
2023/12/12 08:56:36;;;;;;;;;;;;;;;;;;4992182;28;19936;-49
2023/12/12 08:59:02;;;;;;;;;;;;;;;;;;4975746;28;20366;-46
2023/12/12 09:01:29;;;;;;;;;;;;;;;;;;4993236;28;19999;-48
2023/12/12 09:03:56;;;;;;;;;;;;;;;;;;4992875;28;19914;-47
2023/12/12 09:06:22;;;;;;;;;;;;;;;;;;4993206;28;19914;-46
2023/12/12 09:08:48;;;;;;;;;;;;;;;;;;4991967;28;19926;-47
2023/12/12 09:11:14;;;;;;;;;;;;;;;;;;4991797;28;19937;-48
2023/12/12 09:13:40;;;;;;;;;;;;;;;;;;4992767;28;19910;-47
2023/12/12 09:16:06;;;;;;;;;;;;;;;;;;4991647;28;19956;-47
2023/12/12 09:18:32;;;;;;;;;;;;;;;;;;4992726;28;20355;-47
2023/12/12 09:20:58;;;;;;;;;;;;;;;;;;4992897;28;20383;-48
2023/12/12 09:23:27;;;;;;;;;;;;;;;;;;4992781;28;19910;-48
2023/12/12 09:25:54;;;;;;;;;;;;;;;;;;4992938;28;19913;-46
2023/12/12 09:28:21;;;;;;;;;;;;;;;;;;4992845;28;19910;-46
2023/12/12 09:30:47;;;;;;;;;;;;;;;;;;4991369;28;19918;-48
2023/12/12 09:33:13;;;;;;;;;;;;;;;;;;4992620;28;20378;-46
2023/12/12 09:35:39;;;;;;;;;;;;;;;;;;4992983;28;19949;-46
2023/12/12 09:38:05;;;;;;;;;;;;;;;;;;4992783;28;19910;-46
2023/12/12 09:40:31;;;;;;;;;;;;;;;;;;4992514;28;19914;-48
2023/12/12 09:42:57;;;;;;;;;;;;;;;;;;4992624;28;19949;-48
2023/12/12 09:45:25;;;;;;;;;;;;;;;;;;4991449;28;19914;-49
2023/12/12 09:47:51;;;;;;;;;;;;;;;;;;4992816;28;20339;-47
2023/12/12 09:50:17;;;;;;;;;;;;;;;;;;4991336;28;20485;-49
2023/12/12 09:52:43;;;;;;;;;;;;;;;;;;4992495;28;19964;-47
2023/12/12 09:55:10;;;;;;;;;;;;;;;;;;4992632;28;19914;-46
2023/12/12 09:57:36;;;;;;;;;;;;;;;;;;4992596;28;19920;-49
2023/12/12 10:00:04;;;;;;;;;;;;;;;;;;4992362;28;20013;-47
2023/12/12 10:02:30;;;;;;;;;;;;;;;;;;4992366;28;19917;-49
2023/12/12 10:04:56;;;;;;;;;;;;;;;;;;4992556;28;19918;-46
2023/12/12 10:07:24;;;;;;;;;;;;;;;;;;4978865;28;19910;-46
2023/12/12 10:09:50;;;;;;;;;;;;;;;;;;4996228;28;19914;-48
2023/12/12 10:12:16;;;;;;;;;;;;;;;;;;4996219;28;19913;-47
2023/12/12 10:14:44;;;;;;;;;;;;;;;;;;4996068;28;19948;-46
2023/12/12 10:17:10;;;;;;;;;;;;;;;;;;4996152;28;20359;-47
2023/12/12 10:19:40;;;;;;;;;;;;;;;;;;4994752;28;19925;-50
2023/12/12 10:22:06;;;;;;;;;;;;;;;;;;4994985;28;19948;-48
2023/12/12 10:24:32;;;;;;;;;;;;;;;;;;4995029;28;20298;-46
2023/12/12 10:26:58;;;;;;;;;;;;;;;;;;4994688;28;19910;-46
2023/12/12 10:29:24;;;;;;;;;;;;;;;;;;4996317;28;19921;-48
2023/12/12 10:31:50;;;;;;;;;;;;;;;;;;4994643;28;20290;-51
2023/12/12 10:34:16;;;;;;;;;;;;;;;;;;4994506;28;19995;-47
2023/12/12 10:36:42;;;;;;;;;;;;;;;;;;4995933;28;19957;-48
2023/12/12 10:39:08;;;;;;;;;;;;;;;;;;4995595;28;19925;-49
2023/12/12 10:41:35;;;;;;;;;;;;;;;;;;4996259;28;19992;-51
2023/12/12 10:44:05;;;;;;;;;;;;;;;;;;4994181;28;20299;-48
2023/12/12 10:46:32;;;;;;;;;;;;;;;;;;4995742;28;19925;-49
2023/12/12 10:48:58;;;;;;;;;;;;;;;;;;4995583;28;19914;-48
2023/12/12 10:51:24;;;;;;;;;;;;;;;;;;4994291;28;19921;-49
2023/12/12 10:53:51;;;;;;;;;;;;;;;;;;4995378;28;19968;-48
2023/12/12 10:56:17;;;;;;;;;;;;;;;;;;4995355;28;19914;-48
2023/12/12 10:58:43;;;;;;;;;;;;;;;;;;4995257;28;19918;-48
2023/12/12 11:01:09;;;;;;;;;;;;;;;;;;4995322;28;19913;-48
2023/12/12 11:03:36;;;;;;;;;;;;;;;;;;4995067;28;20383;-48
2023/12/12 11:06:02;;;;;;;;;;;;;;;;;;4995271;28;20008;-52
2023/12/12 11:08:28;;;;;;;;;;;;;;;;;;4995238;28;19952;-50
2023/12/12 11:10:54;;;;;;;;;;;;;;;;;;4994945;28;19914;-49
2023/12/12 11:13:20;;;;;;;;;;;;;;;;;;5001119;28;19961;-48
2023/12/12 11:15:47;;;;;;;;;;;;;;;;;;5000288;28;19913;-50
2023/12/12 11:18:14;;;;;;;;;;;;;;;;;;4997813;28;20393;-51
2023/12/12 11:20:41;;;;;;;;;;;;;;;;;;5000403;28;20052;-48
2023/12/12 11:23:07;;;;;;;;;;;;;;;;;;5007402;28;19921;-52
2023/12/12 11:25:33;;;;;;;;;;;;;;;;;;4998488;28;20378;-48
2023/12/12 11:27:59;;;;;;;;;;;;;;;;;;4987904;28;19948;-48
2023/12/12 11:30:26;;;;;;;;;;;;;;;;;;5013068;28;19921;-50
2023/12/12 11:32:53;;;;;;;;;;;;;;;;;;5014108;28;20386;-48
2023/12/12 11:35:19;;;;;;;;;;;;;;;;;;5014337;28;19919;-51
2023/12/12 11:37:45;;;;;;;;;;;;;;;;;;5014244;28;19957;-49
2023/12/12 11:40:11;;;;;;;;;;;;;;;;;;5006173;28;19922;-49
2023/12/12 11:42:37;;;;;;;;;;;;;;;;;;5010420;28;19923;-49
2023/12/12 11:45:03;;;;;;;;;;;;;;;;;;4999485;28;19960;-50
2023/12/12 11:47:29;;;;;;;;;;;;;;;;;;5005322;28;19917;-48
2023/12/12 11:49:55;;;;;;;;;;;;;;;;;;5009388;28;19922;-49
2023/12/12 11:52:21;;;;;;;;;;;;;;;;;;4997443;28;19960;-52
2023/12/12 11:54:47;;;;;;;;;;;;;;;;;;5000800;28;19918;-48
2023/12/12 11:57:13;;;;;;;;;;;;;;;;;;5001985;28;19918;-49
2023/12/12 11:59:39;;;;;;;;;;;;;;;;;;4994270;28;19928;-49
2023/12/12 12:02:05;;;;;;;;;;;;;;;;;;4993772;28;19929;-50
2023/12/12 12:04:32;;;;;;;;;;;;;;;;;;5007225;28;19971;-50
2023/12/12 12:06:58;;;;;;;;;;;;;;;;;;4998171;28;20012;-48
2023/12/12 12:09:24;;;;;;;;;;;;;;;;;;5011516;28;19960;-50
2023/12/12 12:11:52;;;;;;;;;;;;;;;;;;5008451;28;20386;-48
2023/12/12 12:14:18;;;;;;;;;;;;;;;;;;5001491;28;19929;-50
2023/12/12 12:16:44;;;;;;;;;;;;;;;;;;4998058;28;19948;-51
2023/12/12 12:19:10;;;;;;;;;;;;;;;;;;4997839;28;19921;-48
2023/12/12 12:21:36;;;;;;;;;;;;;;;;;;4998431;28;19918;-52
2023/12/12 12:24:02;;;;;;;;;;;;;;;;;;4990878;28;20061;-52
2023/12/12 12:26:28;;;;;;;;;;;;;;;;;;4993524;28;19914;-49
2023/12/12 12:28:54;;;;;;;;;;;;;;;;;;5003316;28;20517;-50
2023/12/12 12:31:20;;;;;;;;;;;;;;;;;;5010193;28;19917;-51
2023/12/12 12:33:46;;;;;;;;;;;;;;;;;;4998990;28;20073;-48
2023/12/12 12:36:12;;;;;;;;;;;;;;;;;;4991893;28;19917;-51
2023/12/12 12:38:39;;;;;;;;;;;;;;;;;;4992842;28;20378;-51
2023/12/12 12:41:05;;;;;;;;;;;;;;;;;;4991861;28;19980;-52
2023/12/12 12:43:31;;;;;;;;;;;;;;;;;;4990644;28;19914;-52
2023/12/12 12:45:58;;;;;;;;;;;;;;;;;;4993442;28;19914;-49
2023/12/12 12:48:26;;;;;;;;;;;;;;;;;;4996285;28;19956;-48
2023/12/12 12:50:53;;;;;;;;;;;;;;;;;;5009707;28;20393;-48
2023/12/12 12:53:19;;;;;;;;;;;;;;;;;;4998868;28;19913;-48
2023/12/12 12:55:47;;;;;;;;;;;;;;;;;;5011199;28;20351;-48
2023/12/12 12:58:15;;;;;;;;;;;;;;;;;;4999733;28;19921;-48
2023/12/12 13:00:41;;;;;;;;;;;;;;;;;;5009672;28;19936;-48
2023/12/12 13:03:08;;;;;;;;;;;;;;;;;;5019193;28;19952;-48
2023/12/12 13:05:34;;;;;;;;;;;;;;;;;;5001856;28;19913;-48
2023/12/12 13:08:00;;;;;;;;;;;;;;;;;;4993470;28;19914;-48
2023/12/12 13:10:26;;;;;;;;;;;;;;;;;;5009126;28;19964;-48
2023/12/12 13:12:52;;;;;;;;;;;;;;;;;;4992553;28;19964;-50
2023/12/12 13:15:19;;;;;;;;;;;;;;;;;;5008722;28;19913;-48
2023/12/12 13:17:45;;;;;;;;;;;;;;;;;;5012578;28;19983;-48
2023/12/12 13:20:11;;;;;;;;;;;;;;;;;;5011014;28;19940;-48
2023/12/12 13:22:37;;;;;;;;;;;;;;;;;;5011262;28;19913;-48
2023/12/12 13:25:03;;;;;;;;;;;;;;;;;;5011208;28;19949;-48
2023/12/12 13:27:29;;;;;;;;;;;;;;;;;;5012620;28;19914;-48
2023/12/12 13:29:55;;;;;;;;;;;;;;;;;;5012248;28;19924;-48
2023/12/12 13:32:21;;;;;;;;;;;;;;;;;;5012242;28;19939;-48
2023/12/12 13:34:49;;;;;;;;;;;;;;;;;;5012304;28;19914;-48
2023/12/12 13:37:16;;;;;;;;;;;;;;;;;;5012586;28;20279;-48
2023/12/12 13:39:42;;;;;;;;;;;;;;;;;;5012176;28;19918;-48
2023/12/12 13:42:08;;;;;;;;;;;;;;;;;;5014820;28;20012;-48
2023/12/12 13:44:34;;;;;;;;;;;;;;;;;;5016465;28;19913;-48
2023/12/12 13:47:00;;;;;;;;;;;;;;;;;;5016309;28;19913;-48
2023/12/12 13:49:26;;;;;;;;;;;;;;;;;;5016188;28;20285;-48
2023/12/12 13:51:52;;;;;;;;;;;;;;;;;;4998549;28;19913;-48
2023/12/12 13:54:18;;;;;;;;;;;;;;;;;;5015980;28;19928;-47
2023/12/12 13:56:44;;;;;;;;;;;;;;;;;;5016150;28;20332;-48
2023/12/12 13:59:10;;;;;;;;;;;;;;;;;;5015861;28;19917;-48
2023/12/12 14:01:37;;;;;;;;;;;;;;;;;;5016052;28;19959;-49
2023/12/12 14:04:03;;;;;;;;;;;;;;;;;;5013874;28;19920;-48
2023/12/12 14:06:29;;;;;;;;;;;;;;;;;;5010329;28;20259;-48
2023/12/12 14:08:55;;;;;;;;;;;;;;;;;;5009727;28;19913;-48
2023/12/12 14:11:24;;;;;;;;;;;;;;;;;;5019510;28;20051;-48
2023/12/12 14:13:50;;;;;;;;;;;;;;;;;;5017988;28;19913;-51
2023/12/12 14:16:16;;;;;;;;;;;;;;;;;;5007635;28;19946;-48
2023/12/12 14:18:42;;;;;;;;;;;;;;;;;;5030077;28;19929;-49
2023/12/12 14:21:08;;;;;;;;;;;;;;;;;;5035421;28;19913;-48
2023/12/12 14:23:34;;;;;;;;;;;;;;;;;;5035099;28;19957;-48
2023/12/12 14:26:00;;;;;;;;;;;;;;;;;;5035385;28;19914;-48
2023/12/12 14:28:26;;;;;;;;;;;;;;;;;;5033657;28;20012;-48
2023/12/12 14:30:53;;;;;;;;;;;;;;;;;;5018970;28;19926;-48
2023/12/12 14:33:19;;;;;;;;;;;;;;;;;;5020553;28;20382;-48
2023/12/12 14:35:45;;;;;;;;;;;;;;;;;;5022784;28;19921;-48
2023/12/12 14:38:11;;;;;;;;;;;;;;;;;;5026953;28;19980;-48
2023/12/12 14:40:37;;;;;;;;;;;;;;;;;;5026816;28;19964;-48
2023/12/12 14:43:03;;;;;;;;;;;;;;;;;;5026832;28;19913;-48
2023/12/12 14:45:29;;;;;;;;;;;;;;;;;;5016420;28;19925;-48
2023/12/12 14:47:55;;;;;;;;;;;;;;;;;;5018700;28;20019;-48
2023/12/12 14:50:22;;;;;;;;;;;;;;;;;;5027781;28;19921;-48
2023/12/12 14:52:48;;;;;;;;;;;;;;;;;;5004265;28;19914;-48
2023/12/12 14:55:14;;;;;;;;;;;;;;;;;;4995450;28;20379;-47
2023/12/12 14:57:40;;;;;;;;;;;;;;;;;;5003843;28;19913;-48
2023/12/12 15:00:08;;;;;;;;;;;;;;;;;;5011599;28;20011;-45
2023/12/12 15:02:35;;;;;;;;;;;;;;;;;;5000272;28;20457;-46
2023/12/12 15:05:02;;;;;;;;;;;;;;;;;;5001843;28;20397;-46
2023/12/12 15:07:28;;;;;;;;;;;;;;;;;;5033060;28;19935;-46
2023/12/12 15:09:54;;;;;;;;;;;;;;;;;;5034489;28;19913;-46
2023/12/12 15:12:20;;;;;;;;;;;;;;;;;;5034405;28;19913;-46
2023/12/12 15:14:46;;;;;;;;;;;;;;;;;;5034477;28;20024;-46
2023/12/12 15:17:12;;;;;;;;;;;;;;;;;;5033839;28;19939;-46
2023/12/12 15:19:38;;;;;;;;;;;;;;;;;;5033029;28;19944;-46
2023/12/12 15:22:04;;;;;;;;;;;;;;;;;;5033114;28;19914;-46
2023/12/12 15:24:30;;;;;;;;;;;;;;;;;;5034225;28;20011;-46
2023/12/12 15:26:56;;;;;;;;;;;;;;;;;;5034292;28;19917;-46
2023/12/12 15:29:23;;;;;;;;;;;;;;;;;;5033880;28;19917;-46
2023/12/12 15:31:49;;;;;;;;;;;;;;;;;;5033346;28;19917;-45
2023/12/12 15:34:15;;;;;;;;;;;;;;;;;;5031972;28;19913;-46
2023/12/12 15:36:41;;;;;;;;;;;;;;;;;;5033048;28;19968;-46
2023/12/12 15:39:07;;;;;;;;;;;;;;;;;;5032900;28;20034;-47
2023/12/12 15:41:33;;;;;;;;;;;;;;;;;;5033006;28;19913;-46
2023/12/12 15:43:59;;;;;;;;;;;;;;;;;;5033187;28;19920;-46
2023/12/12 15:46:25;;;;;;;;;;;;;;;;;;5031589;28;19913;-46
2023/12/12 15:48:51;;;;;;;;;;;;;;;;;;5032827;28;19921;-46
2023/12/12 15:51:18;;;;;;;;;;;;;;;;;;5031406;28;20377;-46
2023/12/12 15:53:44;;;;;;;;;;;;;;;;;;5032630;28;20335;-46
2023/12/12 15:56:10;;;;;;;;;;;;;;;;;;5031544;28;20297;-46
2023/12/12 15:58:36;;;;;;;;;;;;;;;;;;5031180;28;19924;-46
2023/12/12 16:01:03;;;;;;;;;;;;;;;;;;5032860;28;19913;-47
2023/12/12 16:03:29;;;;;;;;;;;;;;;;;;5031723;28;19913;-46
2023/12/12 16:05:55;;;;;;;;;;;;;;;;;;5032543;28;20366;-46
2023/12/12 16:08:21;;;;;;;;;;;;;;;;;;5032654;28;19913;-46
2023/12/12 16:10:47;;;;;;;;;;;;;;;;;;5032379;28;19966;-48
2023/12/12 16:13:13;;;;;;;;;;;;;;;;;;5032368;28;19917;-46
2023/12/12 16:15:39;;;;;;;;;;;;;;;;;;5032431;28;20377;-46
2023/12/12 16:18:05;;;;;;;;;;;;;;;;;;5032452;28;20413;-46
2023/12/12 16:20:31;;;;;;;;;;;;;;;;;;5032209;28;20299;-46
2023/12/12 16:22:57;;;;;;;;;;;;;;;;;;5032211;28;20007;-46
2023/12/12 16:25:23;;;;;;;;;;;;;;;;;;5032772;28;19920;-46
2023/12/12 16:27:50;;;;;;;;;;;;;;;;;;5031010;28;19913;-46
2023/12/12 16:30:16;;;;;;;;;;;;;;;;;;4958227;22;2004855;-46
2023/12/12 16:32:42;;;;;;;;;;;;;;;;;;5011691;28;20136;-46
2023/12/12 16:35:08;;;;;;;;;;;;;;;;;;5013258;28;19913;-46
2023/12/12 16:37:34;;;;;;;;;;;;;;;;;;5013310;28;19914;-46